Time;durP1;ratioP1;P1;durP2;ratioP2;P2;SDS_P1;SDS_P2;PMS_P1;PMS_P2;Temp;Humidity;BMP_temperature;BMP_pressure;BME280_temperature;BME280_humidity;BME280_pressure;Samples;Min_cycle;Max_cycle;Signal;HPM_P1;HPM_P2
2022/03/13 09:52:13;;;;;;;4.78;2.63;;;10.90;99.90;;;;;;5598151;23;20118;-94
2022/03/13 09:54:39;;;;;;;4.97;2.53;;;10.90;99.90;;;;;;4825919;29;20454;-91
2022/03/13 09:57:08;;;;;;;7.97;2.75;;;10.80;99.90;;;;;;4813328;29;20030;-94
2022/03/13 09:59:35;;;;;;;9.38;3.55;;;10.80;99.90;;;;;;4812450;29;20027;-92
2022/03/13 10:02:09;;;;;;;7.57;2.67;;;10.80;99.90;;;;;;4828241;29;20039;-92
2022/03/13 10:04:36;;;;;;;4.82;2.80;;;10.80;99.90;;;;;;4812845;29;20034;-94
2022/03/13 10:07:17;;;;;;;12.77;3.10;;;10.80;99.90;;;;;;4827300;29;20058;-93
2022/03/13 10:09:49;;;;;;;5.10;2.55;;;10.70;99.90;;;;;;4812297;29;20050;-92
2022/03/13 10:12:28;;;;;;;6.50;2.90;;;10.70;99.90;;;;;;4812564;29;20035;-95
2022/03/13 10:15:38;;;;;;;4.18;2.88;;;10.70;99.90;;;;;;4811495;29;20035;-94
2022/03/13 10:18:30;;;;;;;6.55;2.70;;;10.80;99.90;;;;;;4811136;29;20043;-95
2022/03/13 10:21:29;;;;;;;4.28;2.50;;;10.90;99.90;;;;;;5231087;24;20061;-94
2022/03/13 10:24:41;;;;;;;5.85;2.53;;;11.00;99.90;;;;;;4798495;29;20161;-93
2022/03/13 10:27:20;;;;;;;7.07;2.90;;;11.10;99.90;;;;;;4742582;30;20039;-91
2022/03/13 10:30:14;;;;;;;6.75;3.63;;;11.00;99.90;;;;;;4761186;30;20052;-94
2022/03/13 10:33:09;;;;;;;;;;;;;;;;;;;;;
2022/03/13 10:39:44;;;;;;;5.13;2.70;;;11.10;99.90;;;;;;4865640;29;20033;-93
2022/03/13 10:42:11;;;;;;;6.35;2.55;;;11.00;99.90;;;;;;4863295;29;20043;-92
2022/03/13 10:44:45;;;;;;;4.95;2.25;;;10.90;99.90;;;;;;4863360;29;20033;-92
2022/03/13 10:47:11;;;;;;;6.22;3.15;;;11.00;99.90;;;;;;4864177;29;20050;-91
2022/03/13 10:49:42;;;;;;;5.68;2.58;;;11.00;99.90;;;;;;4864918;29;20045;-92
2022/03/13 10:52:35;;;;;;;5.13;2.75;;;10.90;99.90;;;;;;4877089;29;20038;-91
2022/03/13 10:55:24;;;;;;;4.85;2.65;;;10.90;99.90;;;;;;4851887;29;20186;-94
2022/03/13 10:57:59;;;;;;;5.97;2.85;;;10.90;99.90;;;;;;4863870;29;20030;-92
2022/03/13 11:00:27;;;;;;;5.28;3.22;;;11.00;99.90;;;;;;4863236;29;20045;-92
2022/03/13 11:03:17;;;;;;;7.70;2.65;;;10.90;99.90;;;;;;4862891;29;20031;-92
2022/03/13 11:05:43;;;;;;;7.10;2.40;;;10.90;99.90;;;;;;4847806;29;20037;-92
2022/03/13 11:08:10;;;;;;;13.55;3.65;;;11.00;99.90;;;;;;4863065;29;20044;-92
2022/03/13 11:10:37;;;;;;;5.28;3.00;;;10.80;99.90;;;;;;4863360;29;20033;-93
2022/03/13 11:13:07;;;;;;;7.47;3.08;;;10.80;99.90;;;;;;4863375;29;20479;-93
2022/03/13 11:15:37;;;;;;;5.38;2.90;;;10.90;99.90;;;;;;4862621;29;20033;-92
2022/03/13 11:18:09;;;;;;;6.07;2.50;;;11.00;99.90;;;;;;4862696;29;20030;-93
2022/03/13 11:20:56;;;;;;;7.57;3.67;;;11.10;99.90;;;;;;4862669;29;20029;-91
2022/03/13 11:46:48;;;;;;;7.82;4.07;;;11.10;99.90;;;;;;4862914;29;20085;-90
2022/03/13 11:49:33;;;;;;;7.22;3.25;;;11.20;99.90;;;;;;4942563;23;20023;-93
2022/03/13 11:53:13;;;;;;;23.70;7.68;;;11.10;99.90;;;;;;4855521;29;20081;-93
2022/03/13 11:56:26;;;;;;;12.90;5.18;;;10.90;99.90;;;;;;4856255;29;20527;-94
2022/03/13 11:59:18;;;;;;;7.95;3.50;;;10.90;99.90;;;;;;4847164;29;20105;-94
2022/03/13 12:02:32;;;;;;;8.57;3.67;;;11.00;99.90;;;;;;4846965;29;20513;-93
2022/03/13 12:05:34;;;;;;;5.90;3.33;;;11.20;99.90;;;;;;4773819;30;20035;-92
2022/03/13 12:08:06;;;;;;;8.75;3.47;;;11.30;99.90;;;;;;4756453;30;20043;-92
2022/03/13 12:10:41;;;;;;;7.40;3.20;;;11.20;99.90;;;;;;4755815;30;20043;-92
2022/03/13 12:13:19;;;;;;;7.20;2.90;;;11.10;99.90;;;;;;4763405;29;20020;-93
2022/03/13 12:19:42;;;;;;;9.85;3.38;;;11.30;99.90;;;;;;4915584;23;20065;-93
2022/03/13 12:22:14;;;;;;;5.03;3.20;;;11.20;99.90;;;;;;4862608;29;20207;-93
2022/03/13 12:24:48;;;;;;;7.07;3.78;;;11.10;99.90;;;;;;4863923;29;20040;-92
2022/03/13 12:35:32;;;;;;;4.90;3.00;;;11.30;99.90;;;;;;4859362;23;20053;-93
2022/03/13 12:42:06;;;;;;;4.13;2.58;;;11.30;99.90;;;;;;4864845;29;20056;-94
2022/03/13 12:44:37;;;;;;;7.93;2.63;;;11.30;99.90;;;;;;4846611;29;20029;-93
2022/03/13 12:47:06;;;;;;;5.72;3.58;;;11.30;99.90;;;;;;4845883;29;20539;-93
2022/03/13 12:49:36;;;;;;;7.53;3.25;;;11.30;99.90;;;;;;4851404;29;20046;-91
2022/03/13 12:52:13;;;;;;;5.80;3.10;;;11.30;99.90;;;;;;4856582;29;20169;-92
2022/03/13 12:54:40;;;;;;;10.02;4.20;;;11.50;99.90;;;;;;4847090;29;20136;-90
2022/03/13 12:57:08;;;;;;;6.78;3.15;;;11.60;99.90;;;;;;4845432;29;20037;-91
2022/03/13 12:59:36;;;;;;;6.88;3.38;;;11.90;99.90;;;;;;4845421;29;20403;-92
2022/03/13 13:02:10;;;;;;;9.40;3.92;;;12.00;99.90;;;;;;4830218;29;20069;-92
2022/03/13 13:04:42;;;;;;;5.68;2.95;;;12.20;99.90;;;;;;4845324;29;20052;-92
2022/03/13 13:07:11;;;;;;;11.43;3.83;;;12.30;99.90;;;;;;4830148;29;20053;-92
2022/03/13 13:09:40;;;;;;;5.00;2.75;;;12.20;99.90;;;;;;4847683;29;20037;-91
2022/03/13 13:12:08;;;;;;;6.72;2.85;;;12.30;99.90;;;;;;4845182;29;20033;-88
2022/03/13 13:14:38;;;;;;;12.75;4.45;;;12.30;99.90;;;;;;4845143;29;20030;-90
2022/03/13 13:17:21;;;;;;;8.00;3.33;;;12.30;99.90;;;;;;4845169;29;20035;-90
2022/03/13 13:19:50;;;;;;;7.25;3.38;;;12.10;99.90;;;;;;4845252;29;20124;-89
2022/03/13 13:22:35;;;;;;;12.05;4.07;;;12.20;99.90;;;;;;4830148;29;20502;-90
2022/03/13 13:25:14;;;;;;;6.35;2.78;;;12.20;99.90;;;;;;4845790;29;20043;-90
2022/03/13 13:27:51;;;;;;;8.18;3.47;;;12.20;99.90;;;;;;4848907;29;20029;-90
2022/03/13 13:30:31;;;;;;;8.45;3.13;;;12.20;99.90;;;;;;4848672;29;20511;-90
2022/03/13 13:33:07;;;;;;;6.28;3.13;;;12.30;99.90;;;;;;4833160;29;20037;-90
2022/03/13 13:35:34;;;;;;;11.00;3.30;;;12.20;99.90;;;;;;4848327;29;20049;-90
2022/03/13 13:38:13;;;;;;;5.82;2.85;;;12.20;99.90;;;;;;4848615;29;20037;-90
2022/03/13 13:40:45;;;;;;;7.15;2.67;;;12.10;99.90;;;;;;4848420;29;20432;-90
2022/03/13 13:43:30;;;;;;;5.35;3.55;;;12.00;99.90;;;;;;4833363;29;20149;-90
2022/03/13 13:46:10;;;;;;;5.63;3.03;;;11.80;99.90;;;;;;4833059;29;20026;-90
2022/03/13 13:48:40;;;;;;;7.28;2.85;;;11.70;99.90;;;;;;4848240;29;20041;-89
2022/03/13 13:51:30;;;;;;;5.95;3.50;;;11.50;99.90;;;;;;4832950;29;20124;-89
2022/03/13 13:54:06;;;;;;;8.35;3.45;;;11.50;99.90;;;;;;4848166;29;20038;-89
2022/03/13 13:56:39;;;;;;;7.53;4.20;;;11.50;99.90;;;;;;4861408;29;20038;-88
2022/03/13 13:59:19;;;;;;;5.88;3.22;;;11.70;99.90;;;;;;4848719;29;20562;-90
2022/03/13 14:02:25;;;;;;;8.13;4.88;;;11.80;99.90;;;;;;4848825;29;20074;-93
2022/03/13 14:04:53;;;;;;;8.60;4.30;;;11.90;99.90;;;;;;4850689;29;20041;-93
2022/03/13 14:07:21;;;;;;;8.98;4.93;;;11.90;99.90;;;;;;4833098;29;20162;-93
2022/03/13 14:41:04;;;;;;;7.80;3.45;;;11.10;99.90;;;;;;4959224;23;20463;-92
2022/03/13 14:46:52;;;;;;;11.07;3.70;;;11.20;99.90;;;;;;5243917;23;20141;-92
2022/03/13 14:50:08;;;;;;;6.38;3.70;;;11.20;99.90;;;;;;4866163;29;20055;-95
2022/03/13 14:58:54;;;;;;;5.57;3.03;;;10.90;99.90;;;;;;5030629;23;20065;-94
2022/03/13 15:01:52;;;;;;;5.95;3.13;;;10.70;99.90;;;;;;4850600;29;20031;-94
2022/03/13 15:04:28;;;;;;;5.65;2.25;;;10.80;99.90;;;;;;4865874;23;20144;-94
2022/03/13 15:07:40;;;;;;;;;;;;;;;;;;;;;
2022/03/13 15:13:23;;;;;;;;;;;;;;;;;;;;;
2022/03/13 15:16:19;;;;;;;5.22;2.72;;;10.70;99.90;;;;;;4786152;29;20044;-94
2022/03/13 16:09:32;;;;;;;4.40;2.80;;;10.00;99.90;;;;;;5837893;23;20024;31
2022/03/13 16:15:00;;;;;;;8.50;3.10;;;9.80;99.90;;;;;;5409571;23;20049;-94
2022/03/13 16:46:27;;;;;;;;;;;;;;;;;;;;;
2022/03/13 16:48:57;;;;;;;11.43;4.07;;;9.30;99.90;;;;;;4862465;29;20045;-94
2022/03/13 16:51:23;;;;;;;9.77;3.40;;;9.20;99.90;;;;;;4846027;29;20065;-93
2022/03/13 16:53:49;;;;;;;6.20;3.13;;;9.20;99.90;;;;;;4846149;29;20153;-92
2022/03/13 16:56:19;;;;;;;6.18;3.20;;;9.20;99.90;;;;;;4850651;29;20034;-93
2022/03/13 17:02:10;;;;;;;9.80;4.10;;;9.00;99.90;;;;;;4998834;23;20459;-93
2022/03/13 17:04:39;;;;;;;6.60;3.30;;;8.90;99.90;;;;;;4873071;23;20074;-95
2022/03/13 17:07:06;;;;;;;10.85;4.05;;;8.90;99.90;;;;;;4835228;29;20109;-94
2022/03/13 17:09:50;;;;;;;9.65;4.75;;;8.80;99.90;;;;;;4851091;29;20441;-94
2022/03/13 17:12:30;;;;;;;;;;;8.80;99.90;;;;;;4835774;29;20037;-93
2022/03/13 17:14:57;;;;;;;10.55;3.67;;;8.70;99.90;;;;;;4850211;29;20358;-94
2022/03/13 17:17:33;;;;;;;10.77;3.90;;;8.70;99.90;;;;;;4836816;29;20036;-94
2022/03/13 17:20:10;;;;;;;8.82;4.07;;;8.60;99.90;;;;;;4857495;29;20046;-94
2022/03/13 17:22:48;;;;;;;5.32;3.30;;;8.50;99.90;;;;;;4867602;29;20030;-94
2022/03/13 17:25:15;;;;;;;10.60;4.50;;;8.50;99.90;;;;;;4852786;29;20025;-94
2022/03/13 17:27:45;;;;;;;9.32;3.78;;;8.40;99.90;;;;;;4848848;29;20032;-94
2022/03/13 17:30:20;;;;;;;9.43;3.78;;;8.40;99.90;;;;;;4834336;29;20042;-93
2022/03/13 17:32:48;;;;;;;6.97;3.25;;;8.40;99.90;;;;;;4849451;29;20029;-93
2022/03/13 17:35:20;;;;;;;10.23;3.78;;;8.40;99.90;;;;;;4853089;29;20592;-94
2022/03/13 17:37:52;;;;;;;10.85;4.32;;;8.30;99.90;;;;;;4850972;29;20029;-94
2022/03/13 18:05:54;;;;;;;10.77;5.47;;;8.30;99.90;;;;;;4937556;23;20069;-93
2022/03/13 18:08:30;;;;;;;13.52;4.88;;;8.30;99.90;;;;;;4848741;29;20052;-93
2022/03/13 18:11:12;;;;;;;;;;;;;;;;;;;;;
2022/03/13 18:13:48;;;;;;;13.35;5.07;;;8.30;99.90;;;;;;4848400;29;20090;-92
2022/03/13 18:16:28;;;;;;;7.95;4.60;;;8.30;99.90;;;;;;4828686;29;20061;-93
2022/03/13 18:21:36;;;;;;;9.73;4.05;;;8.20;99.90;;;;;;4881363;29;20061;-92
2022/03/13 18:24:07;;;;;;;7.75;4.80;;;8.20;99.90;;;;;;4882355;29;20119;-94
2022/03/13 18:26:34;;;;;;;17.63;6.82;;;8.20;99.90;;;;;;4868012;29;20089;-93
2022/03/13 18:29:01;;;;;;;73.30;20.00;;;8.10;99.90;;;;;;4881894;29;20071;-91
2022/03/13 18:31:27;;;;;;;58.33;21.90;;;8.10;99.90;;;;;;4886757;29;20033;-93
2022/03/13 18:33:54;;;;;;;54.28;20.08;;;8.00;99.90;;;;;;4881629;29;20024;-91
2022/03/13 18:36:20;;;;;;;84.05;23.85;;;8.00;99.90;;;;;;4881750;29;20033;-93
2022/03/13 18:38:46;;;;;;;82.25;28.88;;;8.00;99.90;;;;;;4881474;29;20029;-92
2022/03/13 18:41:14;;;;;;;80.47;28.48;;;7.90;99.90;;;;;;4862785;29;20033;-92
2022/03/13 18:43:41;;;;;;;70.93;25.42;;;7.90;99.90;;;;;;4882283;29;20479;-92
2022/03/13 18:46:08;;;;;;;68.70;21.33;;;7.90;99.90;;;;;;4881717;29;20067;-93
2022/03/13 18:48:36;;;;;;;64.05;21.63;;;7.80;99.90;;;;;;4881824;29;20036;-93
2022/03/13 18:51:02;;;;;;;58.00;19.38;;;7.80;99.90;;;;;;4881543;29;20037;-93
2022/03/13 18:53:28;;;;;;;48.08;16.63;;;7.80;99.90;;;;;;4881499;29;20067;-92
2022/03/13 18:55:55;;;;;;;46.30;16.52;;;7.70;99.90;;;;;;4884038;29;20056;-93
2022/03/13 18:58:21;;;;;;;45.33;14.63;;;7.70;99.90;;;;;;4881939;29;20020;-92
2022/03/13 19:00:48;;;;;;;44.13;15.45;;;7.70;99.90;;;;;;4881975;29;20029;-92
2022/03/13 19:03:14;;;;;;;42.40;15.32;;;7.70;99.90;;;;;;4894616;29;20076;-92
